sensor_id;sensor_type;location;lat;lon;timestamp;temperature;humidity
76211;DHT22;65003;49.518;11.280;2023-06-14T00:00:12;17.20;55.00
76211;DHT22;65003;49.518;11.280;2023-06-14T00:02:39;17.30;54.80
76211;DHT22;65003;49.518;11.280;2023-06-14T00:05:06;17.40;54.50
76211;DHT22;65003;49.518;11.280;2023-06-14T00:07:35;17.40;54.40
76211;DHT22;65003;49.518;11.280;2023-06-14T00:10:01;17.50;54.10
76211;DHT22;65003;49.518;11.280;2023-06-14T00:12:27;17.60;53.90
76211;DHT22;65003;49.518;11.280;2023-06-14T00:14:54;17.60;53.90
76211;DHT22;65003;49.518;11.280;2023-06-14T00:17:20;17.60;53.80
76211;DHT22;65003;49.518;11.280;2023-06-14T00:19:47;17.40;55.20
76211;DHT22;65003;49.518;11.280;2023-06-14T00:22:13;17.10;55.00
76211;DHT22;65003;49.518;11.280;2023-06-14T00:24:40;16.80;55.80
76211;DHT22;65003;49.518;11.280;2023-06-14T00:27:07;16.70;56.40
76211;DHT22;65003;49.518;11.280;2023-06-14T00:29:33;16.70;56.60
76211;DHT22;65003;49.518;11.280;2023-06-14T00:32:00;16.70;56.60
76211;DHT22;65003;49.518;11.280;2023-06-14T00:34:26;16.70;56.40
76211;DHT22;65003;49.518;11.280;2023-06-14T00:36:53;16.60;56.90
76211;DHT22;65003;49.518;11.280;2023-06-14T00:39:20;16.40;57.40
76211;DHT22;65003;49.518;11.280;2023-06-14T00:41:46;16.50;57.30
76211;DHT22;65003;49.518;11.280;2023-06-14T00:44:13;16.50;57.60
76211;DHT22;65003;49.518;11.280;2023-06-14T00:46:39;16.40;57.90
76211;DHT22;65003;49.518;11.280;2023-06-14T00:49:06;16.20;58.30
76211;DHT22;65003;49.518;11.280;2023-06-14T00:51:33;16.10;59.60
76211;DHT22;65003;49.518;11.280;2023-06-14T00:53:59;15.90;59.20
76211;DHT22;65003;49.518;11.280;2023-06-14T00:56:26;15.70;59.70
76211;DHT22;65003;49.518;11.280;2023-06-14T00:58:52;15.60;60.80
76211;DHT22;65003;49.518;11.280;2023-06-14T01:01:19;15.70;60.30
76211;DHT22;65003;49.518;11.280;2023-06-14T01:03:46;15.80;59.70
76211;DHT22;65003;49.518;11.280;2023-06-14T01:06:23;15.70;59.90
76211;DHT22;65003;49.518;11.280;2023-06-14T01:08:51;15.60;60.30
76211;DHT22;65003;49.518;11.280;2023-06-14T01:11:22;15.70;60.20
76211;DHT22;65003;49.518;11.280;2023-06-14T01:13:46;15.70;60.30
76211;DHT22;65003;49.518;11.280;2023-06-14T01:16:12;16.00;59.70
76211;DHT22;65003;49.518;11.280;2023-06-14T01:18:39;16.00;59.30
76211;DHT22;65003;49.518;11.280;2023-06-14T01:21:05;15.90;59.60
76211;DHT22;65003;49.518;11.280;2023-06-14T01:23:32;15.70;59.90
76211;DHT22;65003;49.518;11.280;2023-06-14T01:25:59;15.60;60.60
76211;DHT22;65003;49.518;11.280;2023-06-14T01:28:25;15.50;61.20
76211;DHT22;65003;49.518;11.280;2023-06-14T01:30:52;15.30;61.70
76211;DHT22;65003;49.518;11.280;2023-06-14T01:33:20;15.20;62.20
76211;DHT22;65003;49.518;11.280;2023-06-14T01:35:47;15.10;62.50
76211;DHT22;65003;49.518;11.280;2023-06-14T01:38:13;15.10;62.80
76211;DHT22;65003;49.518;11.280;2023-06-14T01:40:39;15.30;62.30
76211;DHT22;65003;49.518;11.280;2023-06-14T01:43:06;15.30;62.40
76211;DHT22;65003;49.518;11.280;2023-06-14T01:45:33;15.40;62.20
76211;DHT22;65003;49.518;11.280;2023-06-14T01:47:59;15.40;61.90
76211;DHT22;65003;49.518;11.280;2023-06-14T01:50:29;15.30;62.40
76211;DHT22;65003;49.518;11.280;2023-06-14T01:52:54;15.30;62.50
76211;DHT22;65003;49.518;11.280;2023-06-14T01:55:21;15.30;62.60
76211;DHT22;65003;49.518;11.280;2023-06-14T01:57:47;15.20;63.00
76211;DHT22;65003;49.518;11.280;2023-06-14T02:00:15;15.20;62.90
76211;DHT22;65003;49.518;11.280;2023-06-14T02:02:42;15.10;63.30
76211;DHT22;65003;49.518;11.280;2023-06-14T02:05:08;15.00;64.00
76211;DHT22;65003;49.518;11.280;2023-06-14T02:07:35;14.80;64.30
76211;DHT22;65003;49.518;11.280;2023-06-14T02:10:02;14.60;64.90
76211;DHT22;65003;49.518;11.280;2023-06-14T02:12:28;14.60;65.50
76211;DHT22;65003;49.518;11.280;2023-06-14T02:14:55;14.60;65.70
76211;DHT22;65003;49.518;11.280;2023-06-14T02:17:21;14.60;65.30
76211;DHT22;65003;49.518;11.280;2023-06-14T02:19:48;14.80;64.80
76211;DHT22;65003;49.518;11.280;2023-06-14T02:22:14;15.00;64.10
76211;DHT22;65003;49.518;11.280;2023-06-14T02:24:41;15.20;63.50
76211;DHT22;65003;49.518;11.280;2023-06-14T02:27:07;15.30;62.80
76211;DHT22;65003;49.518;11.280;2023-06-14T02:29:34;15.50;62.50
76211;DHT22;65003;49.518;11.280;2023-06-14T02:32:01;15.60;62.10
76211;DHT22;65003;49.518;11.280;2023-06-14T02:34:27;15.70;61.70
76211;DHT22;65003;49.518;11.280;2023-06-14T02:36:54;15.70;61.50
76211;DHT22;65003;49.518;11.280;2023-06-14T02:39:21;15.70;61.10
76211;DHT22;65003;49.518;11.280;2023-06-14T02:41:47;15.70;60.90
76211;DHT22;65003;49.518;11.280;2023-06-14T02:44:14;15.30;62.10
76211;DHT22;65003;49.518;11.280;2023-06-14T02:46:40;15.00;63.20
76211;DHT22;65003;49.518;11.280;2023-06-14T02:49:08;14.80;64.00
76211;DHT22;65003;49.518;11.280;2023-06-14T02:51:34;14.80;64.10
76211;DHT22;65003;49.518;11.280;2023-06-14T02:54:01;14.60;64.70
76211;DHT22;65003;49.518;11.280;2023-06-14T02:56:28;14.60;65.00
76211;DHT22;65003;49.518;11.280;2023-06-14T02:58:54;14.60;65.10
76211;DHT22;65003;49.518;11.280;2023-06-14T03:01:21;14.50;65.20
76211;DHT22;65003;49.518;11.280;2023-06-14T03:03:47;14.60;65.20
76211;DHT22;65003;49.518;11.280;2023-06-14T03:06:14;14.50;65.70
76211;DHT22;65003;49.518;11.280;2023-06-14T03:08:40;14.30;66.30
76211;DHT22;65003;49.518;11.280;2023-06-14T03:11:07;14.30;66.70
76211;DHT22;65003;49.518;11.280;2023-06-14T03:13:35;14.20;66.70
76211;DHT22;65003;49.518;11.280;2023-06-14T03:16:01;14.20;66.90
76211;DHT22;65003;49.518;11.280;2023-06-14T03:18:30;14.20;67.30
76211;DHT22;65003;49.518;11.280;2023-06-14T03:20:57;14.20;67.20
76211;DHT22;65003;49.518;11.280;2023-06-14T03:23:24;14.20;67.30
76211;DHT22;65003;49.518;11.280;2023-06-14T03:25:50;14.20;67.20
76211;DHT22;65003;49.518;11.280;2023-06-14T03:28:17;14.20;67.60
76211;DHT22;65003;49.518;11.280;2023-06-14T03:30:43;14.10;67.80
76211;DHT22;65003;49.518;11.280;2023-06-14T03:33:10;14.10;68.00
76211;DHT22;65003;49.518;11.280;2023-06-14T03:35:36;14.20;67.60
76211;DHT22;65003;49.518;11.280;2023-06-14T03:38:03;14.20;67.80
76211;DHT22;65003;49.518;11.280;2023-06-14T03:40:29;14.10;68.30
76211;DHT22;65003;49.518;11.280;2023-06-14T03:42:56;14.00;68.70
76211;DHT22;65003;49.518;11.280;2023-06-14T03:45:23;14.00;68.90
76211;DHT22;65003;49.518;11.280;2023-06-14T03:47:49;14.00;68.90
76211;DHT22;65003;49.518;11.280;2023-06-14T03:50:17;14.00;69.00
76211;DHT22;65003;49.518;11.280;2023-06-14T03:52:42;14.00;69.20
76211;DHT22;65003;49.518;11.280;2023-06-14T03:55:09;14.00;69.00
76211;DHT22;65003;49.518;11.280;2023-06-14T03:57:36;14.00;69.40
76211;DHT22;65003;49.518;11.280;2023-06-14T04:00:03;13.90;69.70
76211;DHT22;65003;49.518;11.280;2023-06-14T04:02:29;13.90;69.90
76211;DHT22;65003;49.518;11.280;2023-06-14T04:04:56;13.90;70.00
76211;DHT22;65003;49.518;11.280;2023-06-14T04:07:22;13.90;70.20
76211;DHT22;65003;49.518;11.280;2023-06-14T04:09:49;13.90;70.20
76211;DHT22;65003;49.518;11.280;2023-06-14T04:12:16;13.90;70.70
76211;DHT22;65003;49.518;11.280;2023-06-14T04:14:43;13.90;70.80
76211;DHT22;65003;49.518;11.280;2023-06-14T04:17:09;13.90;71.10
76211;DHT22;65003;49.518;11.280;2023-06-14T04:19:36;13.90;71.40
76211;DHT22;65003;49.518;11.280;2023-06-14T04:22:02;13.90;71.50
76211;DHT22;65003;49.518;11.280;2023-06-14T04:24:29;13.90;71.60
76211;DHT22;65003;49.518;11.280;2023-06-14T04:26:56;14.00;71.70
76211;DHT22;65003;49.518;11.280;2023-06-14T04:29:22;14.00;72.10
76211;DHT22;65003;49.518;11.280;2023-06-14T04:31:49;14.10;72.00
76211;DHT22;65003;49.518;11.280;2023-06-14T04:34:15;14.20;72.10
76211;DHT22;65003;49.518;11.280;2023-06-14T04:36:42;14.20;72.00
76211;DHT22;65003;49.518;11.280;2023-06-14T04:39:26;14.30;72.10
76211;DHT22;65003;49.518;11.280;2023-06-14T04:41:53;14.30;72.60
76211;DHT22;65003;49.518;11.280;2023-06-14T04:44:20;14.30;73.10
76211;DHT22;65003;49.518;11.280;2023-06-14T04:46:46;14.30;73.50
76211;DHT22;65003;49.518;11.280;2023-06-14T04:49:14;14.40;73.30
76211;DHT22;65003;49.518;11.280;2023-06-14T04:51:41;14.50;73.30
76211;DHT22;65003;49.518;11.280;2023-06-14T04:54:07;14.70;73.10
76211;DHT22;65003;49.518;11.280;2023-06-14T04:56:34;14.80;72.80
76211;DHT22;65003;49.518;11.280;2023-06-14T04:59:00;14.90;72.80
76211;DHT22;65003;49.518;11.280;2023-06-14T05:01:27;15.00;72.80
76211;DHT22;65003;49.518;11.280;2023-06-14T05:03:54;15.20;72.60
76211;DHT22;65003;49.518;11.280;2023-06-14T05:06:21;15.40;72.20
76211;DHT22;65003;49.518;11.280;2023-06-14T05:08:47;15.50;71.70
76211;DHT22;65003;49.518;11.280;2023-06-14T05:11:14;15.70;71.30
76211;DHT22;65003;49.518;11.280;2023-06-14T05:13:41;15.80;71.10
76211;DHT22;65003;49.518;11.280;2023-06-14T05:16:08;15.90;71.20
76211;DHT22;65003;49.518;11.280;2023-06-14T05:18:34;16.10;71.10
76211;DHT22;65003;49.518;11.280;2023-06-14T05:21:01;16.40;70.00
76211;DHT22;65003;49.518;11.280;2023-06-14T05:23:27;16.80;69.40
76211;DHT22;65003;49.518;11.280;2023-06-14T05:25:54;17.20;66.90
76211;DHT22;65003;49.518;11.280;2023-06-14T05:28:21;17.30;66.60
76211;DHT22;65003;49.518;11.280;2023-06-14T05:30:47;17.50;65.50
76211;DHT22;65003;49.518;11.280;2023-06-14T05:33:14;17.70;65.70
76211;DHT22;65003;49.518;11.280;2023-06-14T05:35:40;17.80;64.20
76211;DHT22;65003;49.518;11.280;2023-06-14T05:38:07;17.90;63.30
76211;DHT22;65003;49.518;11.280;2023-06-14T05:40:33;17.90;64.10
76211;DHT22;65003;49.518;11.280;2023-06-14T05:43:00;18.10;63.20
76211;DHT22;65003;49.518;11.280;2023-06-14T05:45:27;18.10;62.90
76211;DHT22;65003;49.518;11.280;2023-06-14T05:47:53;18.10;63.40
76211;DHT22;65003;49.518;11.280;2023-06-14T05:50:20;18.40;62.10
76211;DHT22;65003;49.518;11.280;2023-06-14T05:52:47;18.50;61.10
76211;DHT22;65003;49.518;11.280;2023-06-14T05:55:15;18.40;61.00
76211;DHT22;65003;49.518;11.280;2023-06-14T05:57:40;18.30;61.10
76211;DHT22;65003;49.518;11.280;2023-06-14T06:00:08;18.30;62.20
76211;DHT22;65003;49.518;11.280;2023-06-14T06:02:37;18.40;61.60
76211;DHT22;65003;49.518;11.280;2023-06-14T06:05:03;18.50;61.70
76211;DHT22;65003;49.518;11.280;2023-06-14T06:07:30;18.40;61.40
76211;DHT22;65003;49.518;11.280;2023-06-14T06:09:57;18.10;62.00
76211;DHT22;65003;49.518;11.280;2023-06-14T06:12:24;18.10;62.50
76211;DHT22;65003;49.518;11.280;2023-06-14T06:14:50;18.20;61.60
76211;DHT22;65003;49.518;11.280;2023-06-14T06:17:17;18.30;61.50
76211;DHT22;65003;49.518;11.280;2023-06-14T06:19:43;18.30;61.30
76211;DHT22;65003;49.518;11.280;2023-06-14T06:22:10;18.20;61.50
76211;DHT22;65003;49.518;11.280;2023-06-14T06:24:36;18.40;62.00
76211;DHT22;65003;49.518;11.280;2023-06-14T06:27:03;18.60;61.40
76211;DHT22;65003;49.518;11.280;2023-06-14T06:29:30;18.70;60.80
76211;DHT22;65003;49.518;11.280;2023-06-14T06:31:56;18.90;60.00
76211;DHT22;65003;49.518;11.280;2023-06-14T06:34:23;19.10;59.20
76211;DHT22;65003;49.518;11.280;2023-06-14T06:36:49;19.10;58.90
76211;DHT22;65003;49.518;11.280;2023-06-14T06:39:16;19.20;58.50
76211;DHT22;65003;49.518;11.280;2023-06-14T06:41:43;19.40;58.30
76211;DHT22;65003;49.518;11.280;2023-06-14T06:44:09;19.70;58.10
76211;DHT22;65003;49.518;11.280;2023-06-14T06:46:36;20.20;57.30
76211;DHT22;65003;49.518;11.280;2023-06-14T06:49:03;21.00;54.60
76211;DHT22;65003;49.518;11.280;2023-06-14T06:51:30;21.60;53.10
76211;DHT22;65003;49.518;11.280;2023-06-14T06:53:56;21.70;51.30
76211;DHT22;65003;49.518;11.280;2023-06-14T06:56:23;21.80;50.90
76211;DHT22;65003;49.518;11.280;2023-06-14T06:58:50;22.00;51.00
76211;DHT22;65003;49.518;11.280;2023-06-14T07:01:16;22.70;48.90
76211;DHT22;65003;49.518;11.280;2023-06-14T07:03:43;23.80;46.70
76211;DHT22;65003;49.518;11.280;2023-06-14T07:06:09;24.70;44.30
76211;DHT22;65003;49.518;11.280;2023-06-14T07:08:36;25.40;42.50
76211;DHT22;65003;49.518;11.280;2023-06-14T07:11:02;25.80;41.40
76211;DHT22;65003;49.518;11.280;2023-06-14T07:13:29;26.40;40.50
76211;DHT22;65003;49.518;11.280;2023-06-14T07:15:57;26.90;38.30
76211;DHT22;65003;49.518;11.280;2023-06-14T07:18:22;27.30;38.40
76211;DHT22;65003;49.518;11.280;2023-06-14T07:20:49;27.40;37.30
76211;DHT22;65003;49.518;11.280;2023-06-14T07:23:15;27.30;37.50
76211;DHT22;65003;49.518;11.280;2023-06-14T07:25:42;27.60;37.50
76211;DHT22;65003;49.518;11.280;2023-06-14T07:28:09;28.40;36.10
76211;DHT22;65003;49.518;11.280;2023-06-14T07:30:35;28.80;34.40
76211;DHT22;65003;49.518;11.280;2023-06-14T07:33:02;28.70;34.30
76211;DHT22;65003;49.518;11.280;2023-06-14T07:35:29;28.40;34.10
76211;DHT22;65003;49.518;11.280;2023-06-14T07:37:55;28.30;34.20
76211;DHT22;65003;49.518;11.280;2023-06-14T07:40:22;28.30;35.40
76211;DHT22;65003;49.518;11.280;2023-06-14T07:42:48;28.40;35.50
76211;DHT22;65003;49.518;11.280;2023-06-14T07:45:15;28.40;34.50
76211;DHT22;65003;49.518;11.280;2023-06-14T07:47:42;28.10;35.80
76211;DHT22;65003;49.518;11.280;2023-06-14T07:50:09;28.60;35.50
76211;DHT22;65003;49.518;11.280;2023-06-14T07:52:36;28.00;34.60
76211;DHT22;65003;49.518;11.280;2023-06-14T07:55:02;26.70;37.20
76211;DHT22;65003;49.518;11.280;2023-06-14T07:57:29;26.30;37.70
76211;DHT22;65003;49.518;11.280;2023-06-14T07:59:55;26.30;37.60
76211;DHT22;65003;49.518;11.280;2023-06-14T08:02:22;26.50;38.40
76211;DHT22;65003;49.518;11.280;2023-06-14T08:04:49;26.90;36.40
76211;DHT22;65003;49.518;11.280;2023-06-14T08:07:15;27.50;35.20
76211;DHT22;65003;49.518;11.280;2023-06-14T08:09:42;27.10;34.80
76211;DHT22;65003;49.518;11.280;2023-06-14T08:12:09;27.50;34.80
76211;DHT22;65003;49.518;11.280;2023-06-14T08:14:36;28.00;33.70
76211;DHT22;65003;49.518;11.280;2023-06-14T08:17:03;28.70;33.00
76211;DHT22;65003;49.518;11.280;2023-06-14T08:19:29;29.60;32.30
76211;DHT22;65003;49.518;11.280;2023-06-14T08:21:56;29.60;31.40
76211;DHT22;65003;49.518;11.280;2023-06-14T08:24:23;29.50;31.40
76211;DHT22;65003;49.518;11.280;2023-06-14T08:26:50;29.90;30.30
76211;DHT22;65003;49.518;11.280;2023-06-14T08:29:17;29.60;30.40
76211;DHT22;65003;49.518;11.280;2023-06-14T08:31:43;29.00;30.30
76211;DHT22;65003;49.518;11.280;2023-06-14T08:34:10;29.00;31.20
76211;DHT22;65003;49.518;11.280;2023-06-14T08:36:36;29.60;30.10
76211;DHT22;65003;49.518;11.280;2023-06-14T08:39:03;29.60;30.00
76211;DHT22;65003;49.518;11.280;2023-06-14T08:41:30;29.40;30.80
76211;DHT22;65003;49.518;11.280;2023-06-14T08:43:56;29.60;30.00
76211;DHT22;65003;49.518;11.280;2023-06-14T08:46:23;29.20;29.70
76211;DHT22;65003;49.518;11.280;2023-06-14T08:48:51;28.80;31.20
76211;DHT22;65003;49.518;11.280;2023-06-14T08:51:18;29.10;30.90
76211;DHT22;65003;49.518;11.280;2023-06-14T08:53:44;29.50;30.30
76211;DHT22;65003;49.518;11.280;2023-06-14T08:56:11;29.40;30.00
76211;DHT22;65003;49.518;11.280;2023-06-14T08:58:37;29.40;30.00
76211;DHT22;65003;49.518;11.280;2023-06-14T09:01:04;29.30;30.70
76211;DHT22;65003;49.518;11.280;2023-06-14T09:03:32;29.40;29.90
76211;DHT22;65003;49.518;11.280;2023-06-14T09:05:58;29.40;29.50
76211;DHT22;65003;49.518;11.280;2023-06-14T09:08:25;29.30;30.00
76211;DHT22;65003;49.518;11.280;2023-06-14T09:10:52;29.60;29.80
76211;DHT22;65003;49.518;11.280;2023-06-14T09:13:18;29.90;29.50
76211;DHT22;65003;49.518;11.280;2023-06-14T09:15:45;30.00;30.00
76211;DHT22;65003;49.518;11.280;2023-06-14T09:18:11;30.00;29.40
76211;DHT22;65003;49.518;11.280;2023-06-14T09:20:38;29.50;29.80
76211;DHT22;65003;49.518;11.280;2023-06-14T09:23:05;28.60;31.00
76211;DHT22;65003;49.518;11.280;2023-06-14T09:25:31;28.30;31.60
76211;DHT22;65003;49.518;11.280;2023-06-14T09:27:58;27.90;32.30
76211;DHT22;65003;49.518;11.280;2023-06-14T09:30:24;27.80;32.80
76211;DHT22;65003;49.518;11.280;2023-06-14T09:32:51;27.50;32.70
76211;DHT22;65003;49.518;11.280;2023-06-14T09:35:18;27.10;32.90
76211;DHT22;65003;49.518;11.280;2023-06-14T09:37:44;26.20;32.50
76211;DHT22;65003;49.518;11.280;2023-06-14T09:40:11;25.60;34.00
76211;DHT22;65003;49.518;11.280;2023-06-14T09:42:37;25.20;34.00
76211;DHT22;65003;49.518;11.280;2023-06-14T09:45:04;24.90;35.00
76211;DHT22;65003;49.518;11.280;2023-06-14T09:47:31;24.90;35.20
76211;DHT22;65003;49.518;11.280;2023-06-14T09:49:58;25.20;35.50
76211;DHT22;65003;49.518;11.280;2023-06-14T09:52:24;25.10;35.20
76211;DHT22;65003;49.518;11.280;2023-06-14T09:54:51;25.10;35.90
76211;DHT22;65003;49.518;11.280;2023-06-14T09:57:21;25.00;35.70
76211;DHT22;65003;49.518;11.280;2023-06-14T09:59:48;25.20;36.10
76211;DHT22;65003;49.518;11.280;2023-06-14T10:02:22;25.90;36.40
76211;DHT22;65003;49.518;11.280;2023-06-14T10:04:50;26.50;34.90
76211;DHT22;65003;49.518;11.280;2023-06-14T10:07:15;26.30;33.90
76211;DHT22;65003;49.518;11.280;2023-06-14T10:09:41;25.80;35.30
76211;DHT22;65003;49.518;11.280;2023-06-14T10:12:08;25.10;34.60
76211;DHT22;65003;49.518;11.280;2023-06-14T10:14:35;25.10;36.20
76211;DHT22;65003;49.518;11.280;2023-06-14T10:17:04;25.50;36.70
76211;DHT22;65003;49.518;11.280;2023-06-14T10:19:34;25.60;35.00
76211;DHT22;65003;49.518;11.280;2023-06-14T10:22:02;25.80;34.90
76211;DHT22;65003;49.518;11.280;2023-06-14T10:24:32;25.90;35.50
76211;DHT22;65003;49.518;11.280;2023-06-14T10:26:57;26.10;34.70
76211;DHT22;65003;49.518;11.280;2023-06-14T10:29:23;26.10;35.00
76211;DHT22;65003;49.518;11.280;2023-06-14T10:31:50;26.10;34.70
76211;DHT22;65003;49.518;11.280;2023-06-14T10:34:27;25.90;35.10
76211;DHT22;65003;49.518;11.280;2023-06-14T10:37:06;25.60;35.30
76211;DHT22;65003;49.518;11.280;2023-06-14T10:39:38;25.30;35.40
76211;DHT22;65003;49.518;11.280;2023-06-14T10:42:01;25.20;35.70
76211;DHT22;65003;49.518;11.280;2023-06-14T10:44:42;25.20;35.60
76211;DHT22;65003;49.518;11.280;2023-06-14T10:47:09;25.10;36.00
76211;DHT22;65003;49.518;11.280;2023-06-14T10:49:40;25.00;36.50
76211;DHT22;65003;49.518;11.280;2023-06-14T10:52:08;24.90;36.50
76211;DHT22;65003;49.518;11.280;2023-06-14T10:54:34;24.90;37.40
76211;DHT22;65003;49.518;11.280;2023-06-14T10:57:01;25.00;37.10
76211;DHT22;65003;49.518;11.280;2023-06-14T10:59:28;25.20;37.00
76211;DHT22;65003;49.518;11.280;2023-06-14T11:03:11;25.50;35.40
76211;DHT22;65003;49.518;11.280;2023-06-14T11:04:47;25.50;35.20
76211;DHT22;65003;49.518;11.280;2023-06-14T11:10:10;25.40;35.30
76211;DHT22;65003;49.518;11.280;2023-06-14T11:12:33;25.60;35.00
76211;DHT22;65003;49.518;11.280;2023-06-14T11:14:59;25.70;33.90
76211;DHT22;65003;49.518;11.280;2023-06-14T11:17:26;25.70;34.20
76211;DHT22;65003;49.518;11.280;2023-06-14T11:20:13;25.80;34.20
76211;DHT22;65003;49.518;11.280;2023-06-14T11:22:41;25.70;32.40
76211;DHT22;65003;49.518;11.280;2023-06-14T11:25:09;25.70;31.80
76211;DHT22;65003;49.518;11.280;2023-06-14T11:27:35;26.50;32.40
76211;DHT22;65003;49.518;11.280;2023-06-14T11:30:02;26.60;31.70
76211;DHT22;65003;49.518;11.280;2023-06-14T11:32:30;26.80;29.90
76211;DHT22;65003;49.518;11.280;2023-06-14T11:34:55;26.80;29.40
76211;DHT22;65003;49.518;11.280;2023-06-14T11:37:21;26.50;29.00
76211;DHT22;65003;49.518;11.280;2023-06-14T11:39:48;26.70;29.90
76211;DHT22;65003;49.518;11.280;2023-06-14T11:42:15;26.80;29.30
76211;DHT22;65003;49.518;11.280;2023-06-14T11:44:42;26.80;29.40
76211;DHT22;65003;49.518;11.280;2023-06-14T11:47:08;26.80;28.80
76211;DHT22;65003;49.518;11.280;2023-06-14T11:49:35;27.00;29.20
76211;DHT22;65003;49.518;11.280;2023-06-14T11:52:02;27.10;30.00
76211;DHT22;65003;49.518;11.280;2023-06-14T11:54:28;26.90;30.00
76211;DHT22;65003;49.518;11.280;2023-06-14T11:56:55;26.40;30.80
76211;DHT22;65003;49.518;11.280;2023-06-14T11:59:22;26.10;31.60
76211;DHT22;65003;49.518;11.280;2023-06-14T12:01:48;26.10;34.10
76211;DHT22;65003;49.518;11.280;2023-06-14T12:04:22;26.50;33.30
76211;DHT22;65003;49.518;11.280;2023-06-14T12:06:41;26.90;32.20
76211;DHT22;65003;49.518;11.280;2023-06-14T12:09:08;27.50;31.50
76211;DHT22;65003;49.518;11.280;2023-06-14T12:11:44;27.80;30.60
76211;DHT22;65003;49.518;11.280;2023-06-14T12:14:10;27.70;31.10
76211;DHT22;65003;49.518;11.280;2023-06-14T12:16:38;27.50;31.10
76211;DHT22;65003;49.518;11.280;2023-06-14T12:19:13;27.20;31.20
76211;DHT22;65003;49.518;11.280;2023-06-14T12:21:38;26.90;31.60
76211;DHT22;65003;49.518;11.280;2023-06-14T12:24:08;26.40;32.20
76211;DHT22;65003;49.518;11.280;2023-06-14T12:26:37;26.10;33.20
76211;DHT22;65003;49.518;11.280;2023-06-14T12:29:01;26.10;33.70
76211;DHT22;65003;49.518;11.280;2023-06-14T12:31:27;25.80;33.00
76211;DHT22;65003;49.518;11.280;2023-06-14T12:33:54;25.90;32.90
76211;DHT22;65003;49.518;11.280;2023-06-14T12:36:20;25.90;31.90
76211;DHT22;65003;49.518;11.280;2023-06-14T12:38:47;25.90;32.30
76211;DHT22;65003;49.518;11.280;2023-06-14T12:41:14;25.70;32.90
76211;DHT22;65003;49.518;11.280;2023-06-14T12:43:40;25.50;33.40
76211;DHT22;65003;49.518;11.280;2023-06-14T12:46:09;25.30;33.00
76211;DHT22;65003;49.518;11.280;2023-06-14T12:48:36;25.10;34.00
76211;DHT22;65003;49.518;11.280;2023-06-14T12:51:02;25.10;34.00
76211;DHT22;65003;49.518;11.280;2023-06-14T12:53:29;25.20;34.30
76211;DHT22;65003;49.518;11.280;2023-06-14T12:55:55;25.40;33.20
76211;DHT22;65003;49.518;11.280;2023-06-14T12:58:22;25.50;33.30
76211;DHT22;65003;49.518;11.280;2023-06-14T13:00:49;25.70;34.20
76211;DHT22;65003;49.518;11.280;2023-06-14T13:03:15;25.60;33.20
76211;DHT22;65003;49.518;11.280;2023-06-14T13:05:42;25.70;33.60
76211;DHT22;65003;49.518;11.280;2023-06-14T13:08:09;25.60;33.90
76211;DHT22;65003;49.518;11.280;2023-06-14T13:10:35;25.60;34.00
76211;DHT22;65003;49.518;11.280;2023-06-14T13:13:02;25.60;33.10
76211;DHT22;65003;49.518;11.280;2023-06-14T13:15:28;25.30;33.80
76211;DHT22;65003;49.518;11.280;2023-06-14T13:17:55;25.30;34.80
76211;DHT22;65003;49.518;11.280;2023-06-14T13:20:21;25.10;34.90
76211;DHT22;65003;49.518;11.280;2023-06-14T13:22:48;25.30;35.50
76211;DHT22;65003;49.518;11.280;2023-06-14T13:25:15;25.40;36.00
76211;DHT22;65003;49.518;11.280;2023-06-14T13:27:41;25.60;34.40
76211;DHT22;65003;49.518;11.280;2023-06-14T13:30:08;25.90;34.50
76211;DHT22;65003;49.518;11.280;2023-06-14T13:32:35;26.10;34.10
76211;DHT22;65003;49.518;11.280;2023-06-14T13:35:01;26.30;33.80
76211;DHT22;65003;49.518;11.280;2023-06-14T13:37:28;26.40;33.60
76211;DHT22;65003;49.518;11.280;2023-06-14T13:39:55;26.40;34.10
76211;DHT22;65003;49.518;11.280;2023-06-14T13:42:21;26.60;33.50
76211;DHT22;65003;49.518;11.280;2023-06-14T13:44:48;26.80;33.40
76211;DHT22;65003;49.518;11.280;2023-06-14T13:47:14;26.90;33.50
76211;DHT22;65003;49.518;11.280;2023-06-14T13:49:41;27.00;32.30
76211;DHT22;65003;49.518;11.280;2023-06-14T13:52:08;27.10;33.00
76211;DHT22;65003;49.518;11.280;2023-06-14T13:54:35;27.00;32.50
76211;DHT22;65003;49.518;11.280;2023-06-14T13:57:01;26.70;32.40
76211;DHT22;65003;49.518;11.280;2023-06-14T13:59:28;26.20;33.40
76211;DHT22;65003;49.518;11.280;2023-06-14T14:01:54;26.00;33.20
76211;DHT22;65003;49.518;11.280;2023-06-14T14:04:21;25.80;33.40
76211;DHT22;65003;49.518;11.280;2023-06-14T14:06:48;25.50;32.70
76211;DHT22;65003;49.518;11.280;2023-06-14T14:09:14;25.20;32.80
76211;DHT22;65003;49.518;11.280;2023-06-14T14:11:41;24.80;32.90
76211;DHT22;65003;49.518;11.280;2023-06-14T14:14:07;24.70;33.80
76211;DHT22;65003;49.518;11.280;2023-06-14T14:16:34;24.70;35.50
76211;DHT22;65003;49.518;11.280;2023-06-14T14:19:01;24.70;34.50
76211;DHT22;65003;49.518;11.280;2023-06-14T14:21:27;24.80;33.80
76211;DHT22;65003;49.518;11.280;2023-06-14T14:23:54;24.70;33.50
76211;DHT22;65003;49.518;11.280;2023-06-14T14:26:20;24.60;33.40
76211;DHT22;65003;49.518;11.280;2023-06-14T14:28:47;24.20;34.80
76211;DHT22;65003;49.518;11.280;2023-06-14T14:31:14;24.20;35.30
76211;DHT22;65003;49.518;11.280;2023-06-14T14:33:40;24.30;35.40
76211;DHT22;65003;49.518;11.280;2023-06-14T14:36:07;24.20;35.10
76211;DHT22;65003;49.518;11.280;2023-06-14T14:38:33;24.20;35.20
76211;DHT22;65003;49.518;11.280;2023-06-14T14:41:00;24.30;35.00
76211;DHT22;65003;49.518;11.280;2023-06-14T14:43:27;24.30;34.50
76211;DHT22;65003;49.518;11.280;2023-06-14T14:45:53;24.30;34.80
76211;DHT22;65003;49.518;11.280;2023-06-14T14:48:20;24.20;34.90
76211;DHT22;65003;49.518;11.280;2023-06-14T14:50:46;24.20;35.40
76211;DHT22;65003;49.518;11.280;2023-06-14T14:53:13;24.10;35.50
76211;DHT22;65003;49.518;11.280;2023-06-14T14:55:39;24.10;34.40
76211;DHT22;65003;49.518;11.280;2023-06-14T14:58:06;23.90;33.60
76211;DHT22;65003;49.518;11.280;2023-06-14T15:00:33;23.70;33.90
76211;DHT22;65003;49.518;11.280;2023-06-14T15:02:59;23.50;34.20
76211;DHT22;65003;49.518;11.280;2023-06-14T15:05:26;23.40;34.50
76211;DHT22;65003;49.518;11.280;2023-06-14T15:07:52;23.50;34.60
76211;DHT22;65003;49.518;11.280;2023-06-14T15:10:19;23.60;35.80
76211;DHT22;65003;49.518;11.280;2023-06-14T15:12:46;23.60;35.50
76211;DHT22;65003;49.518;11.280;2023-06-14T15:15:12;23.60;36.00